sensor_id;sensor_type;location;lat;lon;timestamp;P1;durP1;ratioP1;P2;durP2;ratioP2
12314;SDS011;23886;46.614;14.276;2022-07-05T00:01:36;16.80;;;13.67;;
12314;SDS011;23886;46.614;14.276;2022-07-05T00:04:03;13.00;;;11.50;;
12314;SDS011;23886;46.614;14.276;2022-07-05T00:06:30;11.47;;;10.37;;
12314;SDS011;23886;46.614;14.276;2022-07-05T00:08:57;10.90;;;9.90;;
12314;SDS011;23886;46.614;14.276;2022-07-05T00:11:24;10.17;;;9.17;;
12314;SDS011;23886;46.614;14.276;2022-07-05T00:13:51;11.60;;;9.10;;
12314;SDS011;23886;46.614;14.276;2022-07-05T00:16:18;10.47;;;9.17;;
12314;SDS011;23886;46.614;14.276;2022-07-05T00:18:46;10.10;;;9.03;;
12314;SDS011;23886;46.614;14.276;2022-07-05T00:21:13;10.03;;;9.13;;
12314;SDS011;23886;46.614;14.276;2022-07-05T00:23:40;9.37;;;8.57;;
12314;SDS011;23886;46.614;14.276;2022-07-05T00:26:07;10.20;;;9.20;;
12314;SDS011;23886;46.614;14.276;2022-07-05T00:28:34;10.70;;;9.37;;
12314;SDS011;23886;46.614;14.276;2022-07-05T00:31:01;9.90;;;9.00;;
12314;SDS011;23886;46.614;14.276;2022-07-05T00:33:28;9.67;;;8.77;;
12314;SDS011;23886;46.614;14.276;2022-07-05T00:35:56;10.27;;;8.97;;
12314;SDS011;23886;46.614;14.276;2022-07-05T00:38:23;9.77;;;8.87;;
12314;SDS011;23886;46.614;14.276;2022-07-05T00:40:50;8.87;;;8.07;;
12314;SDS011;23886;46.614;14.276;2022-07-05T00:43:17;10.00;;;8.37;;
12314;SDS011;23886;46.614;14.276;2022-07-05T00:45:44;8.20;;;7.40;;
12314;SDS011;23886;46.614;14.276;2022-07-05T00:48:11;8.30;;;7.60;;
12314;SDS011;23886;46.614;14.276;2022-07-05T00:50:38;8.20;;;7.37;;
12314;SDS011;23886;46.614;14.276;2022-07-05T00:53:07;9.03;;;7.37;;
12314;SDS011;23886;46.614;14.276;2022-07-05T00:55:34;8.80;;;7.90;;
12314;SDS011;23886;46.614;14.276;2022-07-05T00:58:02;7.80;;;7.10;;
12314;SDS011;23886;46.614;14.276;2022-07-05T01:00:29;7.97;;;6.77;;
12314;SDS011;23886;46.614;14.276;2022-07-05T01:02:56;7.83;;;7.20;;
12314;SDS011;23886;46.614;14.276;2022-07-05T01:05:23;8.47;;;7.67;;
12314;SDS011;23886;46.614;14.276;2022-07-05T01:07:50;7.53;;;6.93;;
12314;SDS011;23886;46.614;14.276;2022-07-05T01:10:18;8.63;;;7.47;;
12314;SDS011;23886;46.614;14.276;2022-07-05T01:12:46;7.53;;;6.90;;
12314;SDS011;23886;46.614;14.276;2022-07-05T01:15:13;7.20;;;6.60;;
12314;SDS011;23886;46.614;14.276;2022-07-05T01:17:41;7.27;;;6.60;;
12314;SDS011;23886;46.614;14.276;2022-07-05T01:20:08;7.27;;;6.57;;
12314;SDS011;23886;46.614;14.276;2022-07-05T01:22:52;7.60;;;7.00;;
12314;SDS011;23886;46.614;14.276;2022-07-05T01:25:20;8.13;;;7.43;;
12314;SDS011;23886;46.614;14.276;2022-07-05T01:27:49;7.77;;;7.07;;
12314;SDS011;23886;46.614;14.276;2022-07-05T01:30:16;7.70;;;6.87;;
12314;SDS011;23886;46.614;14.276;2022-07-05T01:32:44;7.67;;;7.07;;
12314;SDS011;23886;46.614;14.276;2022-07-05T01:35:11;7.50;;;6.83;;
12314;SDS011;23886;46.614;14.276;2022-07-05T01:37:39;12.73;;;7.20;;
12314;SDS011;23886;46.614;14.276;2022-07-05T01:40:08;8.07;;;7.37;;
12314;SDS011;23886;46.614;14.276;2022-07-05T01:42:36;8.23;;;7.53;;
12314;SDS011;23886;46.614;14.276;2022-07-05T01:45:03;7.50;;;6.90;;
12314;SDS011;23886;46.614;14.276;2022-07-05T01:47:31;8.17;;;7.37;;
12314;SDS011;23886;46.614;14.276;2022-07-05T01:50:02;6.63;;;6.07;;
12314;SDS011;23886;46.614;14.276;2022-07-05T01:52:32;8.13;;;7.33;;
12314;SDS011;23886;46.614;14.276;2022-07-05T01:55:03;7.63;;;6.93;;
12314;SDS011;23886;46.614;14.276;2022-07-05T01:57:32;7.97;;;6.77;;
12314;SDS011;23886;46.614;14.276;2022-07-05T01:59:59;7.57;;;6.77;;
12314;SDS011;23886;46.614;14.276;2022-07-05T02:02:26;8.17;;;7.23;;
12314;SDS011;23886;46.614;14.276;2022-07-05T02:04:53;7.83;;;7.07;;
12314;SDS011;23886;46.614;14.276;2022-07-05T02:07:20;6.90;;;6.20;;
12314;SDS011;23886;46.614;14.276;2022-07-05T02:09:47;7.50;;;6.80;;
12314;SDS011;23886;46.614;14.276;2022-07-05T02:12:14;7.93;;;7.20;;
12314;SDS011;23886;46.614;14.276;2022-07-05T02:14:42;8.10;;;7.30;;
12314;SDS011;23886;46.614;14.276;2022-07-05T02:17:09;8.03;;;6.83;;
12314;SDS011;23886;46.614;14.276;2022-07-05T02:19:37;7.07;;;6.40;;
12314;SDS011;23886;46.614;14.276;2022-07-05T02:22:04;7.00;;;6.40;;
12314;SDS011;23886;46.614;14.276;2022-07-05T02:24:32;7.60;;;6.80;;
12314;SDS011;23886;46.614;14.276;2022-07-05T02:26:59;7.17;;;6.33;;
12314;SDS011;23886;46.614;14.276;2022-07-05T02:29:26;7.50;;;6.80;;
12314;SDS011;23886;46.614;14.276;2022-07-05T02:31:55;6.90;;;6.30;;
12314;SDS011;23886;46.614;14.276;2022-07-05T02:34:22;9.27;;;7.47;;
12314;SDS011;23886;46.614;14.276;2022-07-05T02:36:48;9.77;;;7.17;;
12314;SDS011;23886;46.614;14.276;2022-07-05T02:39:15;9.03;;;7.60;;
12314;SDS011;23886;46.614;14.276;2022-07-05T02:41:42;10.13;;;7.53;;
12314;SDS011;23886;46.614;14.276;2022-07-05T02:44:09;8.27;;;7.53;;
12314;SDS011;23886;46.614;14.276;2022-07-05T02:46:36;8.23;;;7.20;;
12314;SDS011;23886;46.614;14.276;2022-07-05T02:49:05;8.67;;;7.87;;
12314;SDS011;23886;46.614;14.276;2022-07-05T02:51:31;8.83;;;7.40;;
12314;SDS011;23886;46.614;14.276;2022-07-05T02:53:58;10.70;;;7.90;;
12314;SDS011;23886;46.614;14.276;2022-07-05T02:56:25;8.53;;;7.57;;
12314;SDS011;23886;46.614;14.276;2022-07-05T02:58:52;7.77;;;7.07;;
12314;SDS011;23886;46.614;14.276;2022-07-05T03:01:19;9.00;;;7.20;;
12314;SDS011;23886;46.614;14.276;2022-07-05T03:03:46;8.03;;;7.23;;
12314;SDS011;23886;46.614;14.276;2022-07-05T03:06:14;9.13;;;8.10;;
12314;SDS011;23886;46.614;14.276;2022-07-05T03:08:41;9.10;;;8.20;;
12314;SDS011;23886;46.614;14.276;2022-07-05T03:11:08;9.20;;;8.20;;
12314;SDS011;23886;46.614;14.276;2022-07-05T03:13:35;11.57;;;8.17;;
12314;SDS011;23886;46.614;14.276;2022-07-05T03:16:02;9.17;;;8.23;;
12314;SDS011;23886;46.614;14.276;2022-07-05T03:18:30;8.50;;;7.70;;
12314;SDS011;23886;46.614;14.276;2022-07-05T03:20:57;11.77;;;8.27;;
12314;SDS011;23886;46.614;14.276;2022-07-05T03:23:25;8.50;;;7.70;;
12314;SDS011;23886;46.614;14.276;2022-07-05T03:25:52;10.33;;;9.10;;
12314;SDS011;23886;46.614;14.276;2022-07-05T03:28:19;8.03;;;7.40;;
12314;SDS011;23886;46.614;14.276;2022-07-05T03:30:46;9.40;;;8.10;;
12314;SDS011;23886;46.614;14.276;2022-07-05T03:33:13;10.43;;;7.90;;
12314;SDS011;23886;46.614;14.276;2022-07-05T03:35:40;9.10;;;8.10;;
12314;SDS011;23886;46.614;14.276;2022-07-05T03:38:07;8.47;;;7.67;;
12314;SDS011;23886;46.614;14.276;2022-07-05T03:40:35;8.30;;;7.60;;
12314;SDS011;23886;46.614;14.276;2022-07-05T03:43:02;7.80;;;7.07;;
12314;SDS011;23886;46.614;14.276;2022-07-05T03:45:29;9.13;;;8.00;;
12314;SDS011;23886;46.614;14.276;2022-07-05T03:47:57;9.37;;;8.37;;
12314;SDS011;23886;46.614;14.276;2022-07-05T03:50:24;9.33;;;8.47;;
12314;SDS011;23886;46.614;14.276;2022-07-05T03:52:51;10.63;;;7.27;;
12314;SDS011;23886;46.614;14.276;2022-07-05T03:55:18;8.83;;;7.93;;
12314;SDS011;23886;46.614;14.276;2022-07-05T03:57:47;8.60;;;7.70;;
12314;SDS011;23886;46.614;14.276;2022-07-05T04:00:14;7.43;;;6.70;;
12314;SDS011;23886;46.614;14.276;2022-07-05T04:02:41;8.43;;;7.60;;
12314;SDS011;23886;46.614;14.276;2022-07-05T04:05:08;8.83;;;7.87;;
12314;SDS011;23886;46.614;14.276;2022-07-05T04:07:46;7.82;;;7.10;;
12314;SDS011;23886;46.614;14.276;2022-07-05T04:10:14;9.67;;;7.90;;
12314;SDS011;23886;46.614;14.276;2022-07-05T04:12:41;9.67;;;8.43;;
12314;SDS011;23886;46.614;14.276;2022-07-05T04:15:10;9.23;;;8.33;;
12314;SDS011;23886;46.614;14.276;2022-07-05T04:17:45;9.23;;;8.33;;
12314;SDS011;23886;46.614;14.276;2022-07-05T04:20:12;12.07;;;8.33;;
12314;SDS011;23886;46.614;14.276;2022-07-05T04:22:39;9.93;;;8.50;;
12314;SDS011;23886;46.614;14.276;2022-07-05T04:25:07;9.17;;;8.27;;
12314;SDS011;23886;46.614;14.276;2022-07-05T04:27:42;10.10;;;9.03;;
12314;SDS011;23886;46.614;14.276;2022-07-05T04:30:13;9.70;;;8.70;;
12314;SDS011;23886;46.614;14.276;2022-07-05T04:32:40;8.87;;;8.23;;
12314;SDS011;23886;46.614;14.276;2022-07-05T04:35:07;9.07;;;8.27;;
12314;SDS011;23886;46.614;14.276;2022-07-05T04:37:35;9.83;;;9.00;;
12314;SDS011;23886;46.614;14.276;2022-07-05T04:40:02;10.47;;;9.47;;
12314;SDS011;23886;46.614;14.276;2022-07-05T04:42:30;10.80;;;9.80;;
12314;SDS011;23886;46.614;14.276;2022-07-05T04:44:57;9.93;;;8.93;;
12314;SDS011;23886;46.614;14.276;2022-07-05T04:47:26;9.13;;;7.70;;
12314;SDS011;23886;46.614;14.276;2022-07-05T04:49:53;9.90;;;9.00;;
12314;SDS011;23886;46.614;14.276;2022-07-05T04:52:22;10.07;;;8.97;;
12314;SDS011;23886;46.614;14.276;2022-07-05T04:54:49;9.83;;;8.83;;
12314;SDS011;23886;46.614;14.276;2022-07-05T04:57:16;8.87;;;8.00;;
12314;SDS011;23886;46.614;14.276;2022-07-05T04:59:43;7.80;;;7.20;;
12314;SDS011;23886;46.614;14.276;2022-07-05T05:02:10;8.27;;;7.53;;
12314;SDS011;23886;46.614;14.276;2022-07-05T05:04:41;9.60;;;8.60;;
12314;SDS011;23886;46.614;14.276;2022-07-05T05:07:08;9.90;;;9.00;;
12314;SDS011;23886;46.614;14.276;2022-07-05T05:09:35;8.60;;;7.90;;
12314;SDS011;23886;46.614;14.276;2022-07-05T05:12:03;8.77;;;7.93;;
12314;SDS011;23886;46.614;14.276;2022-07-05T05:14:30;10.20;;;9.10;;
12314;SDS011;23886;46.614;14.276;2022-07-05T05:16:57;10.27;;;9.20;;
12314;SDS011;23886;46.614;14.276;2022-07-05T05:19:24;10.73;;;9.63;;
12314;SDS011;23886;46.614;14.276;2022-07-05T05:21:53;10.27;;;9.37;;
12314;SDS011;23886;46.614;14.276;2022-07-05T05:24:20;14.00;;;9.93;;
12314;SDS011;23886;46.614;14.276;2022-07-05T05:26:47;10.63;;;9.67;;
12314;SDS011;23886;46.614;14.276;2022-07-05T05:29:14;10.27;;;9.33;;
12314;SDS011;23886;46.614;14.276;2022-07-05T05:31:41;11.63;;;10.27;;
12314;SDS011;23886;46.614;14.276;2022-07-05T05:34:08;10.03;;;9.13;;
12314;SDS011;23886;46.614;14.276;2022-07-05T05:36:35;10.10;;;9.30;;
12314;SDS011;23886;46.614;14.276;2022-07-05T05:39:03;9.57;;;8.68;;
12314;SDS011;23886;46.614;14.276;2022-07-05T05:41:30;10.50;;;8.70;;
12314;SDS011;23886;46.614;14.276;2022-07-05T05:43:57;9.47;;;8.63;;
12314;SDS011;23886;46.614;14.276;2022-07-05T05:46:24;8.60;;;7.90;;
12314;SDS011;23886;46.614;14.276;2022-07-05T05:48:51;8.40;;;7.70;;
12314;SDS011;23886;46.614;14.276;2022-07-05T05:51:18;7.80;;;7.20;;
12314;SDS011;23886;46.614;14.276;2022-07-05T05:53:45;7.30;;;6.70;;
12314;SDS011;23886;46.614;14.276;2022-07-05T05:56:14;8.17;;;7.47;;
12314;SDS011;23886;46.614;14.276;2022-07-05T05:58:41;7.30;;;6.70;;
12314;SDS011;23886;46.614;14.276;2022-07-05T06:01:08;7.27;;;6.67;;
12314;SDS011;23886;46.614;14.276;2022-07-05T06:03:35;7.93;;;6.57;;
12314;SDS011;23886;46.614;14.276;2022-07-05T06:06:02;6.47;;;5.87;;
12314;SDS011;23886;46.614;14.276;2022-07-05T06:08:29;7.20;;;6.50;;
12314;SDS011;23886;46.614;14.276;2022-07-05T06:10:56;6.87;;;6.17;;
12314;SDS011;23886;46.614;14.276;2022-07-05T06:13:24;5.90;;;5.40;;
12314;SDS011;23886;46.614;14.276;2022-07-05T06:15:53;6.63;;;6.03;;
12314;SDS011;23886;46.614;14.276;2022-07-05T06:18:20;6.30;;;5.70;;
12314;SDS011;23886;46.614;14.276;2022-07-05T06:20:47;7.23;;;6.00;;
12314;SDS011;23886;46.614;14.276;2022-07-05T06:23:14;5.63;;;5.13;;
12314;SDS011;23886;46.614;14.276;2022-07-05T06:25:41;7.37;;;5.80;;
12314;SDS011;23886;46.614;14.276;2022-07-05T06:28:08;6.03;;;5.47;;
12314;SDS011;23886;46.614;14.276;2022-07-05T06:30:37;6.20;;;5.70;;
12314;SDS011;23886;46.614;14.276;2022-07-05T06:33:05;6.47;;;5.97;;
12314;SDS011;23886;46.614;14.276;2022-07-05T06:35:32;6.50;;;5.90;;
12314;SDS011;23886;46.614;14.276;2022-07-05T06:38:00;5.67;;;5.17;;
12314;SDS011;23886;46.614;14.276;2022-07-05T06:40:30;5.37;;;4.87;;
12314;SDS011;23886;46.614;14.276;2022-07-05T06:42:59;5.73;;;5.03;;
12314;SDS011;23886;46.614;14.276;2022-07-05T06:45:27;5.10;;;4.70;;
12314;SDS011;23886;46.614;14.276;2022-07-05T06:47:55;5.97;;;5.40;;
12314;SDS011;23886;46.614;14.276;2022-07-05T06:50:23;5.30;;;4.80;;
12314;SDS011;23886;46.614;14.276;2022-07-05T06:52:51;5.67;;;4.73;;
12314;SDS011;23886;46.614;14.276;2022-07-05T06:55:18;5.20;;;4.80;;
12314;SDS011;23886;46.614;14.276;2022-07-05T06:57:46;5.97;;;5.43;;
12314;SDS011;23886;46.614;14.276;2022-07-05T07:00:13;6.87;;;5.20;;
12314;SDS011;23886;46.614;14.276;2022-07-05T07:02:40;6.57;;;5.90;;
12314;SDS011;23886;46.614;14.276;2022-07-05T07:05:09;5.80;;;5.30;;
12314;SDS011;23886;46.614;14.276;2022-07-05T07:07:36;6.13;;;5.53;;
12314;SDS011;23886;46.614;14.276;2022-07-05T07:10:20;5.53;;;5.10;;
12314;SDS011;23886;46.614;14.276;2022-07-05T07:12:47;6.00;;;5.40;;
12314;SDS011;23886;46.614;14.276;2022-07-05T07:15:14;5.60;;;5.10;;
12314;SDS011;23886;46.614;14.276;2022-07-05T07:17:41;5.20;;;4.67;;
12314;SDS011;23886;46.614;14.276;2022-07-05T07:20:10;5.13;;;4.73;;
12314;SDS011;23886;46.614;14.276;2022-07-05T07:22:37;4.83;;;4.40;;
12314;SDS011;23886;46.614;14.276;2022-07-05T07:25:05;5.47;;;4.93;;
12314;SDS011;23886;46.614;14.276;2022-07-05T07:27:40;5.70;;;4.50;;
12314;SDS011;23886;46.614;14.276;2022-07-05T07:30:09;6.37;;;5.07;;
12314;SDS011;23886;46.614;14.276;2022-07-05T07:32:37;5.37;;;4.83;;
12314;SDS011;23886;46.614;14.276;2022-07-05T07:35:04;4.63;;;4.20;;
12314;SDS011;23886;46.614;14.276;2022-07-05T07:37:33;4.40;;;4.00;;
12314;SDS011;23886;46.614;14.276;2022-07-05T07:40:01;4.97;;;4.03;;
12314;SDS011;23886;46.614;14.276;2022-07-05T07:42:28;5.60;;;4.03;;
12314;SDS011;23886;46.614;14.276;2022-07-05T07:44:55;4.77;;;4.37;;
12314;SDS011;23886;46.614;14.276;2022-07-05T07:47:22;5.07;;;4.57;;
12314;SDS011;23886;46.614;14.276;2022-07-05T07:49:49;4.90;;;4.30;;
12314;SDS011;23886;46.614;14.276;2022-07-05T07:52:17;5.13;;;4.13;;
12314;SDS011;23886;46.614;14.276;2022-07-05T07:54:45;4.90;;;4.40;;
12314;SDS011;23886;46.614;14.276;2022-07-05T07:57:12;4.23;;;3.93;;
12314;SDS011;23886;46.614;14.276;2022-07-05T07:59:39;4.17;;;3.50;;
12314;SDS011;23886;46.614;14.276;2022-07-05T08:02:06;3.90;;;3.50;;
12314;SDS011;23886;46.614;14.276;2022-07-05T08:04:33;4.10;;;3.60;;
12314;SDS011;23886;46.614;14.276;2022-07-05T08:07:00;4.97;;;3.60;;
12314;SDS011;23886;46.614;14.276;2022-07-05T08:09:28;3.97;;;3.57;;
12314;SDS011;23886;46.614;14.276;2022-07-05T08:11:57;4.53;;;3.33;;
12314;SDS011;23886;46.614;14.276;2022-07-05T08:14:24;3.50;;;3.30;;
12314;SDS011;23886;46.614;14.276;2022-07-05T08:16:51;3.53;;;3.23;;
12314;SDS011;23886;46.614;14.276;2022-07-05T08:19:18;3.70;;;3.40;;
12314;SDS011;23886;46.614;14.276;2022-07-05T08:22:04;4.87;;;4.47;;
12314;SDS011;23886;46.614;14.276;2022-07-05T08:24:32;3.30;;;3.10;;
12314;SDS011;23886;46.614;14.276;2022-07-05T08:27:01;3.93;;;3.00;;
12314;SDS011;23886;46.614;14.276;2022-07-05T08:29:28;3.77;;;3.30;;
12314;SDS011;23886;46.614;14.276;2022-07-05T08:31:55;3.63;;;3.33;;
12314;SDS011;23886;46.614;14.276;2022-07-05T08:34:22;3.83;;;3.50;;
12314;SDS011;23886;46.614;14.276;2022-07-05T08:36:49;3.37;;;3.13;;
12314;SDS011;23886;46.614;14.276;2022-07-05T08:39:16;3.30;;;3.00;;
12314;SDS011;23886;46.614;14.276;2022-07-05T08:41:48;3.80;;;3.40;;
12314;SDS011;23886;46.614;14.276;2022-07-05T08:44:18;4.00;;;3.53;;
12314;SDS011;23886;46.614;14.276;2022-07-05T08:46:47;4.07;;;3.67;;
12314;SDS011;23886;46.614;14.276;2022-07-05T08:49:16;4.60;;;3.23;;
12314;SDS011;23886;46.614;14.276;2022-07-05T08:51:47;4.00;;;3.70;;
12314;SDS011;23886;46.614;14.276;2022-07-05T08:54:16;3.47;;;3.27;;
12314;SDS011;23886;46.614;14.276;2022-07-05T08:56:44;4.17;;;3.57;;
12314;SDS011;23886;46.614;14.276;2022-07-05T08:59:11;3.63;;;3.23;;
12314;SDS011;23886;46.614;14.276;2022-07-05T09:01:39;3.30;;;3.00;;
12314;SDS011;23886;46.614;14.276;2022-07-05T09:04:07;3.23;;;2.97;;
12314;SDS011;23886;46.614;14.276;2022-07-05T09:06:36;3.00;;;2.80;;
12314;SDS011;23886;46.614;14.276;2022-07-05T09:09:05;2.77;;;2.47;;
12314;SDS011;23886;46.614;14.276;2022-07-05T09:11:34;3.70;;;3.10;;
12314;SDS011;23886;46.614;14.276;2022-07-05T09:14:03;4.37;;;2.90;;
12314;SDS011;23886;46.614;14.276;2022-07-05T09:16:32;3.83;;;3.03;;
12314;SDS011;23886;46.614;14.276;2022-07-05T09:19:06;2.80;;;2.60;;
12314;SDS011;23886;46.614;14.276;2022-07-05T09:21:33;2.90;;;2.70;;
12314;SDS011;23886;46.614;14.276;2022-07-05T09:24:02;4.93;;;2.80;;
12314;SDS011;23886;46.614;14.276;2022-07-05T09:26:33;2.93;;;2.73;;
12314;SDS011;23886;46.614;14.276;2022-07-05T09:29:01;4.63;;;2.77;;
12314;SDS011;23886;46.614;14.276;2022-07-05T09:31:29;2.70;;;2.50;;
12314;SDS011;23886;46.614;14.276;2022-07-05T09:34:03;2.97;;;2.77;;
12314;SDS011;23886;46.614;14.276;2022-07-05T09:36:48;2.80;;;2.60;;
12314;SDS011;23886;46.614;14.276;2022-07-05T09:39:16;2.70;;;2.47;;
12314;SDS011;23886;46.614;14.276;2022-07-05T09:41:43;2.53;;;2.33;;
12314;SDS011;23886;46.614;14.276;2022-07-05T09:44:10;2.50;;;2.30;;
12314;SDS011;23886;46.614;14.276;2022-07-05T09:46:37;2.60;;;2.40;;
12314;SDS011;23886;46.614;14.276;2022-07-05T09:49:04;2.50;;;2.30;;
12314;SDS011;23886;46.614;14.276;2022-07-05T09:51:46;2.73;;;2.53;;
12314;SDS011;23886;46.614;14.276;2022-07-05T09:54:15;2.22;;;2.10;;
12314;SDS011;23886;46.614;14.276;2022-07-05T09:56:46;2.40;;;2.20;;
12314;SDS011;23886;46.614;14.276;2022-07-05T09:59:15;2.17;;;2.03;;
12314;SDS011;23886;46.614;14.276;2022-07-05T10:01:44;2.28;;;2.13;;
12314;SDS011;23886;46.614;14.276;2022-07-05T10:04:11;3.75;;;2.58;;
12314;SDS011;23886;46.614;14.276;2022-07-05T10:06:39;2.60;;;2.10;;
12314;SDS011;23886;46.614;14.276;2022-07-05T10:09:07;2.92;;;2.10;;
12314;SDS011;23886;46.614;14.276;2022-07-05T10:11:38;2.42;;;2.20;;
12314;SDS011;23886;46.614;14.276;2022-07-05T10:14:09;3.67;;;2.10;;
12314;SDS011;23886;46.614;14.276;2022-07-05T10:16:40;2.40;;;2.20;;
12314;SDS011;23886;46.614;14.276;2022-07-05T10:19:14;2.87;;;2.30;;
12314;SDS011;23886;46.614;14.276;2022-07-05T10:21:44;2.40;;;2.20;;
12314;SDS011;23886;46.614;14.276;2022-07-05T10:24:12;2.28;;;2.08;;
12314;SDS011;23886;46.614;14.276;2022-07-05T10:26:42;2.63;;;2.10;;
12314;SDS011;23886;46.614;14.276;2022-07-05T10:29:12;2.33;;;2.10;;
12314;SDS011;23886;46.614;14.276;2022-07-05T10:31:40;2.35;;;2.03;;
12314;SDS011;23886;46.614;14.276;2022-07-05T10:34:09;2.08;;;1.98;;
12314;SDS011;23886;46.614;14.276;2022-07-05T10:36:37;2.00;;;1.90;;
12314;SDS011;23886;46.614;14.276;2022-07-05T10:39:06;2.60;;;2.10;;
12314;SDS011;23886;46.614;14.276;2022-07-05T10:41:34;4.03;;;1.90;;
12314;SDS011;23886;46.614;14.276;2022-07-05T10:44:03;2.28;;;1.90;;
12314;SDS011;23886;46.614;14.276;2022-07-05T10:46:34;2.17;;;1.98;;
12314;SDS011;23886;46.614;14.276;2022-07-05T10:49:11;2.47;;;2.10;;
12314;SDS011;23886;46.614;14.276;2022-07-05T10:51:41;2.00;;;1.90;;
12314;SDS011;23886;46.614;14.276;2022-07-05T10:54:08;2.13;;;1.95;;
12314;SDS011;23886;46.614;14.276;2022-07-05T10:56:35;2.08;;;1.88;;
12314;SDS011;23886;46.614;14.276;2022-07-05T10:59:05;2.03;;;1.80;;
12314;SDS011;23886;46.614;14.276;2022-07-05T11:01:35;1.85;;;1.73;;
12314;SDS011;23886;46.614;14.276;2022-07-05T11:04:11;2.05;;;1.95;;
12314;SDS011;23886;46.614;14.276;2022-07-05T11:06:47;2.67;;;1.80;;
12314;SDS011;23886;46.614;14.276;2022-07-05T11:09:16;2.75;;;1.92;;
12314;SDS011;23886;46.614;14.276;2022-07-05T11:11:45;1.80;;;1.70;;
12314;SDS011;23886;46.614;14.276;2022-07-05T11:14:33;2.08;;;1.80;;
12314;SDS011;23886;46.614;14.276;2022-07-05T11:17:11;2.92;;;2.00;;
12314;SDS011;23886;46.614;14.276;2022-07-05T11:20:03;3.28;;;2.10;;
12314;SDS011;23886;46.614;14.276;2022-07-05T11:22:32;1.90;;;1.80;;
12314;SDS011;23886;46.614;14.276;2022-07-05T11:25:00;1.80;;;1.70;;
12314;SDS011;23886;46.614;14.276;2022-07-05T11:27:28;2.08;;;1.75;;
12314;SDS011;23886;46.614;14.276;2022-07-05T11:29:58;1.60;;;1.50;;
12314;SDS011;23886;46.614;14.276;2022-07-05T11:32:36;1.73;;;1.52;;
12314;SDS011;23886;46.614;14.276;2022-07-05T11:35:14;2.15;;;1.50;;
12314;SDS011;23886;46.614;14.276;2022-07-05T11:40:29;1.30;;;1.20;;
12314;SDS011;23886;46.614;14.276;2022-07-05T11:42:57;2.03;;;1.60;;
12314;SDS011;23886;46.614;14.276;2022-07-05T11:45:28;1.52;;;1.30;;
12314;SDS011;23886;46.614;14.276;2022-07-05T11:47:56;1.45;;;1.35;;
12314;SDS011;23886;46.614;14.276;2022-07-05T11:50:27;1.33;;;1.02;;
12314;SDS011;23886;46.614;14.276;2022-07-05T11:52:56;1.90;;;1.38;;
12314;SDS011;23886;46.614;14.276;2022-07-05T11:55:24;1.50;;;1.40;;
12314;SDS011;23886;46.614;14.276;2022-07-05T11:57:53;1.27;;;1.17;;
12314;SDS011;23886;46.614;14.276;2022-07-05T12:00:32;0.93;;;0.93;;
12314;SDS011;23886;46.614;14.276;2022-07-05T12:03:01;1.33;;;1.10;;
12314;SDS011;23886;46.614;14.276;2022-07-05T12:05:36;1.60;;;1.23;;
12314;SDS011;23886;46.614;14.276;2022-07-05T12:08:04;1.20;;;1.10;;
12314;SDS011;23886;46.614;14.276;2022-07-05T12:10:31;1.40;;;1.30;;
12314;SDS011;23886;46.614;14.276;2022-07-05T12:13:16;1.88;;;1.20;;
12314;SDS011;23886;46.614;14.276;2022-07-05T12:15:44;1.50;;;1.40;;
12314;SDS011;23886;46.614;14.276;2022-07-05T12:18:12;1.17;;;1.10;;
12314;SDS011;23886;46.614;14.276;2022-07-05T12:20:40;1.30;;;1.20;;
12314;SDS011;23886;46.614;14.276;2022-07-05T12:23:08;1.60;;;1.50;;
12314;SDS011;23886;46.614;14.276;2022-07-05T12:25:35;2.72;;;1.05;;
12314;SDS011;23886;46.614;14.276;2022-07-05T12:28:03;1.83;;;1.48;;
12314;SDS011;23886;46.614;14.276;2022-07-05T12:30:32;1.27;;;1.17;;
12314;SDS011;23886;46.614;14.276;2022-07-05T12:33:00;1.27;;;1.17;;
12314;SDS011;23886;46.614;14.276;2022-07-05T12:35:29;1.10;;;1.10;;
12314;SDS011;23886;46.614;14.276;2022-07-05T12:38:01;1.50;;;1.30;;
12314;SDS011;23886;46.614;14.276;2022-07-05T12:40:29;1.65;;;1.40;;
12314;SDS011;23886;46.614;14.276;2022-07-05T12:43:00;1.27;;;1.17;;
12314;SDS011;23886;46.614;14.276;2022-07-05T12:45:28;2.25;;;1.40;;
12314;SDS011;23886;46.614;14.276;2022-07-05T12:47:56;1.50;;;1.40;;
12314;SDS011;23886;46.614;14.276;2022-07-05T12:50:26;1.08;;;1.08;;
12314;SDS011;23886;46.614;14.276;2022-07-05T12:53:01;2.05;;;1.55;;
12314;SDS011;23886;46.614;14.276;2022-07-05T12:55:47;1.60;;;1.50;;
12314;SDS011;23886;46.614;14.276;2022-07-05T12:58:31;1.77;;;1.60;;
12314;SDS011;23886;46.614;14.276;2022-07-05T13:00:58;1.38;;;1.27;;
12314;SDS011;23886;46.614;14.276;2022-07-05T13:03:25;1.30;;;1.20;;
12314;SDS011;23886;46.614;14.276;2022-07-05T13:06:03;1.27;;;1.20;;
12314;SDS011;23886;46.614;14.276;2022-07-05T13:08:30;1.98;;;1.20;;
12314;SDS011;23886;46.614;14.276;2022-07-05T13:10:57;1.20;;;1.10;;
12314;SDS011;23886;46.614;14.276;2022-07-05T13:13:24;1.10;;;1.10;;
12314;SDS011;23886;46.614;14.276;2022-07-05T13:15:51;1.15;;;1.02;;
12314;SDS011;23886;46.614;14.276;2022-07-05T13:18:24;1.25;;;1.10;;
12314;SDS011;23886;46.614;14.276;2022-07-05T13:20:52;0.98;;;0.98;;
12314;SDS011;23886;46.614;14.276;2022-07-05T13:23:20;1.20;;;1.10;;
12314;SDS011;23886;46.614;14.276;2022-07-05T13:25:47;1.13;;;1.02;;
12314;SDS011;23886;46.614;14.276;2022-07-05T13:28:14;1.00;;;1.00;;
12314;SDS011;23886;46.614;14.276;2022-07-05T13:30:41;1.38;;;1.27;;
12314;SDS011;23886;46.614;14.276;2022-07-05T13:33:08;1.80;;;1.10;;
12314;SDS011;23886;46.614;14.276;2022-07-05T13:35:35;1.02;;;1.00;;
12314;SDS011;23886;46.614;14.276;2022-07-05T13:38:02;1.45;;;1.10;;
12314;SDS011;23886;46.614;14.276;2022-07-05T13:40:30;1.30;;;1.20;;
12314;SDS011;23886;46.614;14.276;2022-07-05T13:42:57;1.42;;;1.33;;
12314;SDS011;23886;46.614;14.276;2022-07-05T13:45:24;1.23;;;1.13;;
12314;SDS011;23886;46.614;14.276;2022-07-05T13:47:51;0.77;;;0.77;;
12314;SDS011;23886;46.614;14.276;2022-07-05T13:50:18;2.63;;;1.27;;
12314;SDS011;23886;46.614;14.276;2022-07-05T13:52:58;1.20;;;1.20;;
12314;SDS011;23886;46.614;14.276;2022-07-05T13:55:25;1.35;;;1.25;;
12314;SDS011;23886;46.614;14.276;2022-07-05T13:57:54;1.67;;;1.10;;
12314;SDS011;23886;46.614;14.276;2022-07-05T14:00:22;1.25;;;1.15;;
12314;SDS011;23886;46.614;14.276;2022-07-05T14:02:50;1.67;;;1.00;;
12314;SDS011;23886;46.614;14.276;2022-07-05T14:05:17;1.30;;;1.20;;
12314;SDS011;23886;46.614;14.276;2022-07-05T14:07:45;0.70;;;0.70;;
12314;SDS011;23886;46.614;14.276;2022-07-05T14:10:13;0.75;;;0.75;;
12314;SDS011;23886;46.614;14.276;2022-07-05T14:12:40;1.65;;;0.68;;
12314;SDS011;23886;46.614;14.276;2022-07-05T14:15:09;2.35;;;1.00;;
12314;SDS011;23886;46.614;14.276;2022-07-05T14:17:36;1.38;;;0.70;;
12314;SDS011;23886;46.614;14.276;2022-07-05T14:20:03;0.73;;;0.73;;
12314;SDS011;23886;46.614;14.276;2022-07-05T14:22:31;0.93;;;0.77;;
12314;SDS011;23886;46.614;14.276;2022-07-05T14:24:58;1.10;;;0.85;;
12314;SDS011;23886;46.614;14.276;2022-07-05T14:27:25;2.03;;;0.88;;
12314;SDS011;23886;46.614;14.276;2022-07-05T14:29:52;2.35;;;0.80;;
12314;SDS011;23886;46.614;14.276;2022-07-05T14:32:21;0.85;;;0.70;;
12314;SDS011;23886;46.614;14.276;2022-07-05T14:34:48;1.48;;;0.80;;
12314;SDS011;23886;46.614;14.276;2022-07-05T14:37:15;0.70;;;0.70;;
12314;SDS011;23886;46.614;14.276;2022-07-05T14:39:45;1.25;;;0.80;;
12314;SDS011;23886;46.614;14.276;2022-07-05T14:42:12;0.57;;;0.47;;
12314;SDS011;23886;46.614;14.276;2022-07-05T14:44:39;1.17;;;1.00;;